Woburn Sands, United Kingdom
Current Conditions -  °F | °C
As of 1:50 PM on Monday 20 Oct 2014 (Local Time) from EGTC Reporting Station
Few Clouds Few Clouds  
Wind Chill: 61°   Ceiling: Unl
Heat Index: 61°   Visibility: 6mi
Dew Point: 55°   Wind: 16mph
Humidity: 82%   Direction: 220°SW
Pressure: 29.94"   Gusts: 28mph
Location:  52.02°N, 0.65°W
Report Text: EGTC 201250Z 22014G24KT 9999 FEW022 16/13 Q1014
Loading
Personal Weather Stations






























Interactive Weather Map
Tropical Storm Tracking
New forecast layout! Learn more

10-Day Weather Forecast

Advertisements
Track Severe Weather on mobile